createdAt,value
2024-04-15T00:00:06.416Z,533.00
2024-04-15T00:01:06.559Z,531.00
2024-04-15T00:02:06.426Z,528.00
2024-04-15T00:03:06.533Z,529.00
2024-04-15T00:04:06.529Z,529.00
2024-04-15T00:05:06.615Z,530.00
2024-04-15T00:06:06.560Z,531.00
2024-04-15T00:07:06.544Z,530.00
2024-04-15T00:08:06.590Z,527.00
2024-04-15T00:09:06.576Z,525.00
2024-04-15T00:10:06.646Z,525.00
2024-04-15T00:11:06.713Z,524.00
2024-04-15T00:12:06.675Z,525.00
2024-04-15T00:13:06.832Z,525.00
2024-04-15T00:14:06.710Z,525.00
2024-04-15T00:15:06.730Z,524.00
2024-04-15T00:16:06.874Z,523.00
2024-04-15T00:17:06.784Z,522.00
2024-04-15T00:18:06.899Z,526.00
2024-04-15T00:19:06.899Z,528.00
2024-04-15T00:20:06.869Z,530.00
2024-04-15T00:21:06.854Z,530.00
2024-04-15T00:22:06.971Z,528.00
2024-04-15T00:23:06.997Z,528.00
2024-04-15T00:24:07.011Z,529.00
2024-04-15T00:25:07.041Z,531.00
2024-04-15T00:26:07.010Z,528.00
2024-04-15T00:27:07.046Z,526.00
2024-04-15T00:28:07.102Z,528.00
2024-04-15T00:29:07.063Z,528.00
2024-04-15T00:30:07.111Z,528.00
2024-04-15T00:31:07.172Z,527.00
2024-04-15T00:32:07.185Z,527.00
2024-04-15T00:33:07.349Z,526.00
2024-04-15T00:34:07.221Z,524.00
2024-04-15T00:35:07.261Z,524.00
2024-04-15T00:36:07.265Z,524.00
2024-04-15T00:37:07.339Z,525.00
2024-04-15T00:38:07.351Z,525.00
2024-04-15T00:39:07.410Z,525.00
2024-04-15T00:40:07.427Z,527.00
2024-04-15T00:41:07.409Z,529.00
2024-04-15T00:42:07.454Z,524.00
2024-04-15T00:43:07.509Z,524.00
2024-04-15T00:44:07.505Z,523.00
2024-04-15T00:45:07.541Z,521.00
2024-04-15T00:46:07.701Z,520.00
2024-04-15T00:47:07.686Z,522.00
2024-04-15T00:48:07.719Z,525.00
2024-04-15T00:49:07.641Z,525.00
2024-04-15T00:50:07.680Z,523.00
2024-04-15T00:51:07.708Z,522.00
2024-04-15T00:52:07.769Z,520.00
2024-04-15T00:53:07.790Z,520.00
2024-04-15T00:54:07.844Z,521.00
2024-04-15T00:55:07.969Z,523.00
2024-04-15T00:56:07.845Z,529.00
2024-04-15T00:57:07.867Z,527.00
2024-04-15T00:58:07.996Z,528.00
2024-04-15T00:59:07.934Z,527.00
2024-04-15T01:00:07.945Z,527.00
2024-04-15T01:01:08.016Z,527.00
2024-04-15T01:02:08.138Z,526.00
2024-04-15T01:03:08.088Z,525.00
2024-04-15T01:04:08.122Z,526.00
2024-04-15T01:05:08.325Z,522.00
2024-04-15T01:06:08.129Z,518.00
2024-04-15T01:07:08.248Z,519.00
2024-04-15T01:08:08.303Z,517.00
2024-04-15T01:09:08.267Z,521.00
2024-04-15T01:10:08.403Z,522.00
2024-04-15T01:11:08.325Z,524.00
2024-04-15T01:12:08.378Z,522.00
2024-04-15T01:13:08.453Z,522.00
2024-04-15T01:14:08.397Z,523.00
2024-04-15T01:15:08.408Z,523.00
2024-04-15T01:16:08.499Z,522.00
2024-04-15T01:17:08.491Z,520.00
2024-04-15T01:18:08.663Z,521.00
2024-04-15T01:19:08.580Z,521.00
2024-04-15T01:20:08.590Z,522.00
2024-04-15T01:21:08.594Z,520.00
2024-04-15T01:22:11.042Z,520.00
2024-04-15T01:23:08.765Z,523.00
2024-04-15T01:24:08.768Z,525.00
2024-04-15T01:25:08.926Z,523.00
2024-04-15T01:26:08.853Z,522.00
2024-04-15T01:27:08.890Z,523.00
2024-04-15T01:28:08.930Z,523.00
2024-04-15T01:29:08.921Z,522.00
2024-04-15T01:30:08.952Z,522.00
2024-04-15T01:31:09.063Z,524.00
2024-04-15T01:32:09.047Z,525.00
2024-04-15T01:33:09.090Z,526.00
2024-04-15T01:34:09.114Z,526.00
2024-04-15T01:35:09.108Z,522.00
2024-04-15T01:36:09.145Z,520.00
2024-04-15T01:37:09.211Z,520.00
2024-04-15T01:38:09.194Z,521.00
2024-04-15T01:39:09.236Z,521.00
2024-04-15T01:40:09.270Z,521.00
2024-04-15T01:41:09.300Z,521.00
2024-04-15T01:42:09.349Z,521.00
2024-04-15T01:43:09.405Z,518.00
2024-04-15T01:44:09.382Z,516.00
2024-04-15T01:45:09.406Z,515.00
2024-04-15T01:46:09.512Z,515.00
2024-04-15T01:47:09.471Z,516.00
2024-04-15T01:48:09.528Z,517.00
2024-04-15T01:49:09.595Z,518.00
2024-04-15T01:50:09.550Z,518.00
2024-04-15T01:51:09.589Z,514.00
2024-04-15T01:52:09.635Z,516.00
2024-04-15T01:53:09.695Z,514.00
2024-04-15T01:54:09.693Z,515.00
2024-04-15T01:55:09.810Z,514.00
2024-04-15T01:56:09.768Z,513.00
2024-04-15T01:57:09.758Z,516.00
2024-04-15T01:58:09.851Z,518.00
2024-04-15T01:59:09.889Z,519.00
2024-04-15T02:00:09.891Z,518.00
2024-04-15T02:01:10.116Z,516.00
2024-04-15T02:02:09.953Z,517.00
2024-04-15T02:03:10.147Z,519.00
2024-04-15T02:04:10.107Z,516.00
2024-04-15T02:05:10.076Z,517.00
2024-04-15T02:06:10.121Z,520.00
2024-04-15T02:07:10.178Z,519.00
2024-04-15T02:08:10.200Z,516.00
2024-04-15T02:09:10.202Z,518.00
2024-04-15T02:10:10.327Z,520.00
2024-04-15T02:11:10.352Z,519.00
2024-04-15T02:12:10.377Z,520.00
2024-04-15T02:13:10.486Z,524.00
2024-04-15T02:14:10.416Z,520.00
2024-04-15T02:15:10.470Z,519.00
2024-04-15T02:16:10.494Z,516.00
2024-04-15T02:17:10.513Z,513.00
2024-04-15T02:18:10.731Z,511.00
2024-04-15T02:19:10.797Z,512.00
2024-04-15T02:20:10.684Z,511.00
2024-04-15T02:21:10.711Z,510.00
2024-04-15T02:22:10.874Z,514.00
2024-04-15T02:23:10.767Z,515.00
2024-04-15T02:24:10.812Z,516.00
2024-04-15T02:25:10.909Z,517.00
2024-04-15T02:26:10.881Z,516.00
2024-04-15T02:27:10.960Z,511.00
2024-04-15T02:28:11.169Z,516.00
2024-04-15T02:29:11.072Z,516.00
2024-04-15T02:30:11.074Z,518.00
2024-04-15T02:31:11.125Z,517.00
2024-04-15T02:32:11.245Z,515.00
2024-04-15T02:33:11.155Z,516.00
2024-04-15T02:34:11.266Z,516.00
2024-04-15T02:35:11.223Z,514.00
2024-04-15T02:36:11.261Z,513.00
2024-04-15T02:37:11.388Z,514.00
2024-04-15T02:38:11.374Z,513.00
2024-04-15T02:39:11.402Z,513.00
2024-04-15T02:40:11.475Z,514.00
2024-04-15T02:41:11.559Z,513.00
2024-04-15T02:42:11.530Z,514.00
2024-04-15T02:43:11.624Z,513.00
2024-04-15T02:44:11.584Z,515.00
2024-04-15T02:45:11.625Z,513.00
2024-04-15T02:46:11.693Z,513.00
2024-04-15T02:47:11.738Z,513.00
2024-04-15T02:48:11.771Z,512.00
2024-04-15T02:49:11.835Z,513.00
2024-04-15T02:50:11.834Z,514.00
2024-04-15T02:51:11.892Z,517.00
2024-04-15T02:52:11.951Z,519.00
2024-04-15T02:53:11.924Z,519.00
2024-04-15T02:54:11.966Z,516.00
2024-04-15T02:55:12.149Z,514.00
2024-04-15T02:56:12.060Z,516.00
2024-04-15T02:57:12.075Z,516.00
2024-04-15T02:58:12.210Z,517.00
2024-04-15T02:59:12.163Z,515.00
2024-04-15T03:00:12.197Z,516.00
2024-04-15T03:01:12.300Z,516.00
2024-04-15T03:02:12.373Z,518.00
2024-04-15T03:03:12.368Z,521.00
2024-04-15T03:04:12.448Z,520.00
2024-04-15T03:05:12.468Z,520.00
2024-04-15T03:06:12.441Z,519.00
2024-04-15T03:07:12.630Z,520.00
2024-04-15T03:08:12.544Z,519.00
2024-04-15T03:09:12.575Z,519.00
2024-04-15T03:10:12.726Z,520.00
2024-04-15T03:11:12.670Z,519.00
2024-04-15T03:12:12.680Z,519.00
2024-04-15T03:13:12.719Z,519.00
2024-04-15T03:14:12.785Z,520.00
2024-04-15T03:15:12.788Z,523.00
2024-04-15T03:16:19.785Z,521.00
2024-04-15T03:17:13.831Z,520.00
2024-04-15T03:18:12.871Z,520.00
2024-04-15T03:19:12.886Z,521.00
2024-04-15T03:20:12.826Z,519.00
2024-04-15T03:21:12.819Z,517.00
2024-04-15T03:22:12.910Z,520.00
2024-04-15T03:23:12.844Z,519.00
2024-04-15T03:24:12.860Z,518.00
2024-04-15T03:25:12.903Z,517.00
2024-04-15T03:26:12.856Z,519.00
2024-04-15T03:27:12.821Z,516.00
2024-04-15T03:28:12.887Z,516.00
2024-04-15T03:29:12.841Z,518.00
2024-04-15T03:30:12.823Z,520.00
2024-04-15T03:31:12.861Z,521.00
2024-04-15T03:32:12.894Z,522.00
2024-04-15T03:33:12.874Z,521.00
2024-04-15T03:34:12.954Z,519.00
2024-04-15T03:35:12.905Z,519.00
2024-04-15T03:36:13.072Z,521.00
2024-04-15T03:37:13.091Z,523.00
2024-04-15T03:38:13.028Z,524.00
2024-04-15T03:39:13.045Z,525.00
2024-04-15T03:40:13.140Z,524.00
2024-04-15T03:41:13.136Z,524.00
2024-04-15T03:42:13.212Z,523.00
2024-04-15T03:43:13.232Z,521.00
2024-04-15T03:44:13.314Z,522.00
2024-04-15T03:45:13.366Z,521.00
2024-04-15T03:46:13.396Z,521.00
2024-04-15T03:47:13.406Z,519.00
2024-04-15T03:48:13.626Z,520.00
2024-04-15T03:49:13.600Z,517.00
2024-04-15T03:50:13.543Z,516.00
2024-04-15T03:51:13.576Z,516.00
2024-04-15T03:52:13.678Z,516.00
2024-04-15T03:53:13.663Z,514.00
2024-04-15T03:54:13.779Z,514.00
2024-04-15T03:55:13.847Z,513.00
2024-04-15T03:56:13.802Z,513.00
2024-04-15T03:57:13.842Z,513.00
2024-04-15T03:58:13.928Z,511.00
2024-04-15T03:59:13.893Z,512.00
2024-04-15T04:00:13.967Z,511.00
2024-04-15T04:01:14.091Z,510.00
2024-04-15T04:02:14.037Z,513.00
2024-04-15T04:03:14.155Z,515.00
2024-04-15T04:04:14.173Z,518.00
2024-04-15T04:05:14.218Z,517.00
2024-04-15T04:06:14.268Z,517.00
2024-04-15T04:07:14.439Z,516.00
2024-04-15T04:08:14.402Z,518.00
2024-04-15T04:09:14.484Z,521.00
2024-04-15T04:10:14.675Z,522.00
2024-04-15T04:11:14.664Z,525.00
2024-04-15T04:12:14.743Z,523.00
2024-04-15T04:13:14.796Z,523.00
2024-04-15T04:14:14.838Z,524.00
2024-04-15T04:15:14.881Z,527.00
2024-04-15T04:16:15.052Z,527.00
2024-04-15T04:17:15.072Z,528.00
2024-04-15T04:18:15.225Z,533.00
2024-04-15T04:19:15.184Z,536.00
2024-04-15T04:20:15.234Z,536.00
2024-04-15T04:21:15.271Z,535.00
2024-04-15T04:22:15.511Z,534.00
2024-04-15T04:23:15.392Z,534.00
2024-04-15T04:24:15.425Z,534.00
2024-04-15T04:25:15.564Z,532.00
2024-04-15T04:26:15.446Z,533.00
2024-04-15T04:27:15.494Z,535.00
2024-04-15T04:28:15.593Z,538.00
2024-04-15T04:29:15.527Z,542.00
2024-04-15T04:30:22.727Z,569.00
2024-04-15T04:31:30.047Z,551.00
2024-04-15T04:32:30.002Z,553.00
2024-04-15T04:33:29.913Z,549.00
2024-04-15T04:34:29.908Z,543.00
2024-04-15T04:35:29.987Z,542.00
2024-04-15T04:36:29.916Z,542.00
2024-04-15T04:37:29.918Z,540.00
2024-04-15T04:38:29.938Z,537.00
2024-04-15T04:39:29.918Z,538.00
2024-04-15T04:40:29.949Z,535.00
2024-04-15T04:41:29.968Z,534.00
2024-04-15T04:42:29.954Z,538.00
2024-04-15T04:43:29.959Z,539.00
2024-04-15T04:44:29.951Z,539.00
2024-04-15T04:45:29.941Z,538.00
2024-04-15T04:46:29.956Z,539.00
2024-04-15T04:47:29.957Z,542.00
2024-04-15T04:48:29.956Z,544.00
2024-04-15T04:49:29.978Z,539.00
2024-04-15T04:50:29.954Z,539.00
2024-04-15T04:51:31.379Z,538.00
2024-04-15T04:52:30.023Z,538.00
2024-04-15T04:53:30.044Z,539.00
2024-04-15T04:54:30.092Z,539.00
2024-04-15T04:55:30.149Z,540.00
2024-04-15T04:56:30.222Z,542.00
2024-04-15T04:57:30.278Z,541.00
2024-04-15T04:58:30.311Z,541.00
2024-04-15T04:59:30.396Z,542.00
2024-04-15T05:00:30.436Z,542.00
2024-04-15T05:01:30.594Z,542.00
2024-04-15T05:02:30.602Z,541.00
2024-04-15T05:03:30.638Z,542.00
2024-04-15T05:04:30.824Z,542.00
2024-04-15T05:05:30.735Z,540.00
2024-04-15T05:06:30.801Z,539.00
2024-04-15T05:07:30.842Z,539.00
2024-04-15T05:08:30.918Z,540.00
2024-04-15T05:09:30.971Z,543.00
2024-04-15T05:10:31.047Z,542.00
2024-04-15T05:11:31.118Z,543.00
2024-04-15T05:12:31.155Z,542.00
2024-04-15T05:13:31.282Z,543.00
2024-04-15T05:14:31.268Z,541.00
2024-04-15T05:15:31.309Z,539.00
2024-04-15T05:16:31.432Z,539.00
2024-04-15T05:17:31.538Z,537.00
2024-04-15T05:18:31.624Z,536.00
2024-04-15T05:19:31.572Z,542.00
2024-04-15T05:20:31.605Z,541.00
2024-04-15T05:21:33.352Z,540.00
2024-04-15T05:22:31.691Z,539.00
2024-04-15T05:23:31.737Z,540.00
2024-04-15T05:24:31.810Z,542.00
2024-04-15T05:25:31.884Z,545.00
2024-04-15T05:26:31.960Z,543.00
2024-04-15T05:27:31.960Z,543.00
2024-04-15T05:28:32.054Z,545.00
2024-04-15T05:29:32.074Z,545.00
2024-04-15T05:30:32.188Z,545.00
2024-04-15T05:31:32.208Z,545.00
2024-04-15T05:32:32.686Z,543.00
2024-04-15T05:33:32.353Z,542.00
2024-04-15T05:34:32.375Z,543.00
2024-04-15T05:35:32.480Z,542.00
2024-04-15T05:36:32.541Z,548.00
2024-04-15T05:37:32.550Z,566.00
2024-04-15T05:38:32.564Z,565.00
2024-04-15T05:39:32.621Z,567.00
2024-04-15T05:40:32.624Z,571.00
2024-04-15T05:41:32.614Z,592.00
2024-04-15T05:42:32.750Z,652.00
2024-04-15T05:43:32.730Z,657.00
2024-04-15T05:44:32.700Z,648.00
2024-04-15T05:45:32.757Z,655.00
2024-04-15T05:46:32.856Z,641.00
2024-04-15T05:47:32.994Z,661.00
2024-04-15T05:48:33.220Z,657.00
2024-04-15T05:49:33.005Z,663.00
2024-04-15T05:50:33.089Z,665.00
2024-04-15T05:51:33.065Z,714.00
2024-04-15T05:52:33.138Z,716.00
2024-04-15T05:53:33.129Z,729.00
2024-04-15T05:54:33.126Z,720.00
2024-04-15T05:55:33.158Z,725.00
2024-04-15T05:56:33.141Z,732.00
2024-04-15T05:57:33.152Z,741.00
2024-04-15T05:58:33.149Z,746.00
2024-04-15T05:59:33.310Z,753.00
2024-04-15T06:00:34.560Z,753.00
2024-04-15T06:01:33.353Z,762.00
2024-04-15T06:02:33.337Z,773.00
2024-04-15T06:03:33.466Z,778.00
2024-04-15T06:04:33.486Z,786.00
2024-04-15T06:05:33.484Z,791.00
2024-04-15T06:06:33.512Z,802.00
2024-04-15T06:07:33.609Z,807.00
2024-04-15T06:08:33.621Z,816.00
2024-04-15T06:09:33.751Z,825.00
2024-04-15T06:10:33.760Z,839.00
2024-04-15T06:11:33.876Z,849.00
2024-04-15T06:12:33.911Z,852.00
2024-04-15T06:13:33.976Z,850.00
2024-04-15T06:14:34.022Z,853.00
2024-04-15T06:15:34.137Z,860.00
2024-04-15T06:16:34.265Z,866.00
2024-04-15T06:17:34.222Z,876.00
2024-04-15T06:18:35.021Z,882.00
2024-04-15T06:19:34.322Z,886.00
2024-04-15T06:20:34.409Z,894.00
2024-04-15T06:21:34.456Z,900.00
2024-04-15T06:22:34.521Z,901.00
2024-04-15T06:23:34.568Z,905.00
2024-04-15T06:24:34.655Z,911.00
2024-04-15T06:25:34.719Z,912.00
2024-04-15T06:26:34.769Z,913.00
2024-04-15T06:27:34.870Z,919.00
2024-04-15T06:28:34.910Z,925.00
2024-04-15T06:29:35.213Z,922.00
2024-04-15T06:30:35.099Z,920.00
2024-04-15T06:31:35.100Z,921.00
2024-04-15T06:32:35.144Z,931.00
2024-04-15T06:33:35.322Z,933.00
2024-04-15T06:34:35.296Z,937.00
2024-04-15T06:35:35.345Z,936.00
2024-04-15T06:36:35.399Z,946.00
2024-04-15T06:37:35.581Z,950.00
2024-04-15T06:38:35.619Z,1017.00
2024-04-15T06:39:35.793Z,1021.00
2024-04-15T06:40:35.645Z,998.00
2024-04-15T06:41:35.758Z,977.00
2024-04-15T06:42:35.804Z,971.00
2024-04-15T06:43:36.137Z,960.00
2024-04-15T06:44:36.111Z,925.00
2024-04-15T06:45:35.940Z,915.00
2024-04-15T06:46:36.065Z,906.00
2024-04-15T06:47:36.076Z,902.00
2024-04-15T06:48:36.141Z,895.00
2024-04-15T06:49:36.676Z,881.00
2024-04-15T06:50:36.646Z,879.00
2024-04-15T06:51:36.329Z,874.00
2024-04-15T06:52:36.416Z,872.00
2024-04-15T06:53:36.442Z,875.00
2024-04-15T06:54:36.701Z,880.00
2024-04-15T06:55:36.667Z,881.00
2024-04-15T06:56:36.736Z,885.00
2024-04-15T06:57:36.700Z,893.00
2024-04-15T06:58:36.796Z,896.00
2024-04-15T06:59:37.652Z,895.00
2024-04-15T07:00:36.930Z,897.00
2024-04-15T07:01:39.150Z,897.00
2024-04-15T07:02:37.107Z,897.00
2024-04-15T07:03:36.999Z,899.00
2024-04-15T07:04:37.082Z,904.00
2024-04-15T07:05:36.946Z,905.00
2024-04-15T07:06:37.174Z,908.00
2024-04-15T07:07:36.939Z,910.00
2024-04-15T07:08:36.923Z,909.00
2024-04-15T07:09:37.126Z,912.00
2024-04-15T07:10:36.963Z,914.00
2024-04-15T07:11:36.991Z,914.00
2024-04-15T07:12:36.941Z,912.00
2024-04-15T07:13:36.990Z,914.00
2024-04-15T07:14:36.992Z,917.00
2024-04-15T07:15:37.027Z,917.00
2024-04-15T07:16:37.096Z,918.00
2024-04-15T07:17:36.979Z,916.00
2024-04-15T07:18:36.975Z,915.00
2024-04-15T07:19:36.962Z,912.00
2024-04-15T07:20:36.975Z,909.00
2024-04-15T07:21:37.426Z,912.00
2024-04-15T07:22:36.998Z,913.00
2024-04-15T07:23:36.947Z,916.00
2024-04-15T07:24:36.969Z,917.00
2024-04-15T07:25:36.956Z,916.00
2024-04-15T07:26:36.977Z,916.00
2024-04-15T07:27:36.952Z,918.00
2024-04-15T07:28:36.980Z,921.00
2024-04-15T07:29:36.994Z,925.00
2024-04-15T07:30:36.997Z,925.00
2024-04-15T07:31:37.025Z,921.00
2024-04-15T07:32:36.978Z,896.00
2024-04-15T07:33:37.179Z,800.00
2024-04-15T07:34:37.146Z,794.00
2024-04-15T07:35:36.985Z,808.00
2024-04-15T07:36:36.974Z,796.00
2024-04-15T07:37:36.989Z,799.00
2024-04-15T07:38:36.981Z,799.00
2024-04-15T07:39:37.005Z,799.00
2024-04-15T07:40:37.066Z,777.00
2024-04-15T07:41:37.016Z,759.00
2024-04-15T07:42:43.879Z,704.00
2024-04-15T07:43:38.080Z,707.00
2024-04-15T07:44:37.041Z,708.00
2024-04-15T07:45:37.001Z,696.00
2024-04-15T07:46:37.018Z,685.00
2024-04-15T07:47:37.212Z,674.00
2024-04-15T07:48:36.980Z,671.00
2024-04-15T07:49:37.029Z,663.00
2024-04-15T07:50:37.044Z,660.00
2024-04-15T07:51:37.001Z,655.00
2024-04-15T07:52:36.999Z,651.00
2024-04-15T07:53:36.988Z,643.00
2024-04-15T07:54:37.002Z,637.00
2024-04-15T07:55:37.193Z,717.00
2024-04-15T07:56:40.273Z,697.00
2024-04-15T07:57:37.015Z,704.00
2024-04-15T07:58:37.186Z,706.00
2024-04-15T07:59:37.071Z,704.00
2024-04-15T08:00:37.051Z,700.00
2024-04-15T08:01:37.090Z,729.00
2024-04-15T08:02:37.051Z,716.00
2024-04-15T08:03:37.205Z,700.00
2024-04-15T08:04:37.067Z,692.00
2024-04-15T08:05:37.234Z,689.00
2024-04-15T08:06:37.072Z,706.00
2024-04-15T08:07:37.056Z,722.00
2024-04-15T08:08:37.019Z,724.00
2024-04-15T08:09:37.063Z,736.00
2024-04-15T08:10:37.182Z,749.00
2024-04-15T08:11:37.009Z,759.00
2024-04-15T08:12:37.012Z,763.00
2024-04-15T08:13:37.217Z,765.00
2024-04-15T08:14:37.023Z,771.00
2024-04-15T08:15:37.014Z,779.00
2024-04-15T08:16:37.130Z,791.00
2024-04-15T08:17:37.063Z,795.00
2024-04-15T08:18:37.065Z,799.00
2024-04-15T08:19:37.050Z,801.00
2024-04-15T08:20:37.019Z,808.00
2024-04-15T08:21:37.028Z,816.00
2024-04-15T08:22:37.198Z,823.00
2024-04-15T08:23:37.160Z,829.00
2024-04-15T08:24:37.135Z,833.00
2024-04-15T08:25:37.184Z,834.00
2024-04-15T08:26:38.086Z,838.00
2024-04-15T08:27:37.841Z,866.00
2024-04-15T08:28:37.344Z,895.00
2024-04-15T08:29:37.396Z,901.00
2024-04-15T08:30:37.448Z,850.00
2024-04-15T08:31:37.436Z,831.00
2024-04-15T08:32:37.565Z,716.00
2024-04-15T08:33:37.703Z,761.00
2024-04-15T08:34:37.609Z,709.00
2024-04-15T08:35:37.791Z,709.00
2024-04-15T08:36:37.759Z,690.00
2024-04-15T08:37:37.806Z,652.00
2024-04-15T08:38:38.228Z,638.00
2024-04-15T08:39:38.196Z,629.00
2024-04-15T08:40:38.197Z,616.00
2024-04-15T08:41:40.232Z,652.00
2024-04-15T08:42:38.936Z,675.00
2024-04-15T08:43:37.942Z,728.00
2024-04-15T08:44:37.948Z,728.00
2024-04-15T08:45:37.945Z,719.00
2024-04-15T08:46:37.978Z,703.00
2024-04-15T08:47:38.216Z,709.00
2024-04-15T08:48:37.937Z,714.00
2024-04-15T08:49:38.203Z,716.00
2024-04-15T08:50:38.075Z,756.00
2024-04-15T08:51:38.087Z,752.00
2024-04-15T08:52:37.950Z,753.00
2024-04-15T08:53:37.933Z,737.00
2024-04-15T08:54:37.967Z,762.00
2024-04-15T08:55:38.037Z,753.00
2024-04-15T08:56:38.083Z,752.00
2024-04-15T08:57:38.132Z,752.00
2024-04-15T08:58:38.695Z,750.00
2024-04-15T08:59:38.274Z,769.00
2024-04-15T09:00:38.463Z,760.00
2024-04-15T09:01:38.496Z,761.00
2024-04-15T09:02:38.551Z,755.00
2024-04-15T09:03:38.683Z,748.00
2024-04-15T09:04:38.699Z,746.00
2024-04-15T09:05:39.247Z,734.00
2024-04-15T09:06:38.847Z,734.00
2024-04-15T09:07:38.839Z,730.00
2024-04-15T09:08:39.703Z,720.00
2024-04-15T09:09:38.920Z,718.00
2024-04-15T09:10:38.965Z,737.00
2024-04-15T09:11:39.098Z,735.00
2024-04-15T09:12:39.167Z,729.00
2024-04-15T09:13:39.234Z,732.00
2024-04-15T09:14:39.524Z,724.00
2024-04-15T09:15:39.279Z,722.00
2024-04-15T09:16:41.208Z,727.00
2024-04-15T09:17:39.368Z,733.00
2024-04-15T09:18:39.900Z,728.00
2024-04-15T09:19:39.363Z,729.00
2024-04-15T09:20:49.747Z,735.00
2024-04-15T09:21:40.330Z,743.00
2024-04-15T09:22:40.115Z,739.00
2024-04-15T09:23:39.330Z,753.00
2024-04-15T09:24:39.730Z,733.00
2024-04-15T09:25:40.221Z,724.00
2024-04-15T09:26:42.428Z,726.00
2024-04-15T09:27:39.312Z,725.00
2024-04-15T09:28:39.620Z,729.00
2024-04-15T09:29:39.709Z,732.00
2024-04-15T09:30:39.883Z,728.00
2024-04-15T09:31:39.754Z,705.00
2024-04-15T09:32:39.733Z,764.00
2024-04-15T09:33:39.743Z,759.00
2024-04-15T09:34:39.699Z,759.00
2024-04-15T09:35:39.700Z,752.00
2024-04-15T09:36:40.728Z,744.00
2024-04-15T09:37:39.327Z,756.00
2024-04-15T09:38:42.170Z,760.00
2024-04-15T09:39:39.371Z,764.00
2024-04-15T09:40:39.709Z,768.00
2024-04-15T09:41:39.341Z,761.00
2024-04-15T09:42:39.346Z,773.00
2024-04-15T09:43:39.334Z,750.00
2024-04-15T09:44:42.295Z,755.00
2024-04-15T09:45:39.346Z,768.00
2024-04-15T09:46:39.736Z,773.00
2024-04-15T09:47:39.366Z,773.00
2024-04-15T09:48:39.355Z,775.00
2024-04-15T09:49:39.342Z,783.00
2024-04-15T09:50:42.254Z,803.00
2024-04-15T09:51:39.694Z,824.00
2024-04-15T09:52:39.407Z,836.00
2024-04-15T09:53:40.205Z,852.00
2024-04-15T09:54:39.373Z,861.00
2024-04-15T09:55:39.354Z,858.00
2024-04-15T09:56:39.719Z,858.00
2024-04-15T09:57:39.425Z,840.00
2024-04-15T09:58:39.380Z,836.00
2024-04-15T09:59:39.722Z,826.00
2024-04-15T10:00:39.431Z,820.00
2024-04-15T10:01:39.471Z,820.00
2024-04-15T10:02:43.111Z,820.00
2024-04-15T10:03:39.438Z,811.00
2024-04-15T10:04:39.463Z,817.00
2024-04-15T10:05:39.423Z,800.00
2024-04-15T10:06:39.433Z,789.00
2024-04-15T10:07:39.408Z,775.00
2024-04-15T10:08:41.634Z,766.00
2024-04-15T10:09:39.402Z,762.00
2024-04-15T10:10:39.407Z,751.00
2024-04-15T10:11:39.383Z,745.00
2024-04-15T10:12:39.464Z,743.00
2024-04-15T10:13:39.419Z,741.00
2024-04-15T10:14:42.657Z,733.00
2024-04-15T10:15:39.389Z,707.00
2024-04-15T10:16:41.502Z,704.00
2024-04-15T10:17:39.448Z,703.00
2024-04-15T10:18:39.418Z,706.00
2024-04-15T10:19:39.409Z,701.00
2024-04-15T10:20:39.446Z,697.00
2024-04-15T10:21:39.741Z,699.00
2024-04-15T10:22:39.436Z,692.00
2024-04-15T10:23:39.439Z,693.00
2024-04-15T10:24:39.741Z,691.00
2024-04-15T10:25:39.419Z,692.00
2024-04-15T10:26:39.472Z,701.00
2024-04-15T10:27:39.647Z,697.00
2024-04-15T10:28:39.790Z,702.00
2024-04-15T10:29:39.449Z,705.00
2024-04-15T10:30:39.484Z,700.00
2024-04-15T10:31:39.450Z,703.00
2024-04-15T10:32:39.522Z,716.00
2024-04-15T10:33:39.735Z,717.00
2024-04-15T10:34:39.395Z,717.00
2024-04-15T10:35:39.445Z,712.00
2024-04-15T10:36:39.417Z,706.00
2024-04-15T10:37:39.732Z,706.00
2024-04-15T10:38:39.551Z,695.00
2024-04-15T10:39:39.399Z,666.00
2024-04-15T10:40:39.450Z,658.00
2024-04-15T10:41:39.466Z,654.00
2024-04-15T10:42:39.431Z,670.00
2024-04-15T10:43:39.744Z,673.00
2024-04-15T10:44:39.432Z,680.00
2024-04-15T10:45:39.435Z,707.00
2024-04-15T10:46:39.446Z,716.00
2024-04-15T10:47:39.484Z,719.00
2024-04-15T10:48:39.761Z,716.00
2024-04-15T10:49:39.440Z,722.00
2024-04-15T10:50:39.543Z,721.00
2024-04-15T10:51:39.450Z,713.00
2024-04-15T10:52:39.499Z,713.00
2024-04-15T10:53:39.747Z,714.00
2024-04-15T10:54:39.456Z,712.00
2024-04-15T10:55:39.438Z,704.00
2024-04-15T10:56:39.749Z,690.00
2024-04-15T10:57:39.460Z,688.00
2024-04-15T10:58:39.423Z,695.00
2024-04-15T10:59:39.476Z,693.00
2024-04-15T11:00:39.827Z,692.00
2024-04-15T11:01:39.514Z,694.00
2024-04-15T11:02:39.549Z,689.00
2024-04-15T11:03:39.530Z,691.00
2024-04-15T11:04:39.679Z,687.00
2024-04-15T11:05:39.772Z,700.00
2024-04-15T11:06:39.663Z,699.00
2024-04-15T11:07:39.739Z,703.00
2024-04-15T11:08:39.742Z,693.00
2024-04-15T11:09:40.260Z,687.00
2024-04-15T11:10:39.933Z,677.00
2024-04-15T11:11:39.883Z,682.00
2024-04-15T11:12:39.865Z,676.00
2024-04-15T11:13:40.241Z,679.00
2024-04-15T11:14:39.920Z,672.00
2024-04-15T11:15:40.003Z,674.00
2024-04-15T11:16:40.200Z,675.00
2024-04-15T11:17:40.094Z,698.00
2024-04-15T11:18:40.292Z,770.00
2024-04-15T11:19:40.073Z,761.00
2024-04-15T11:20:40.123Z,714.00
2024-04-15T11:21:41.076Z,683.00
2024-04-15T11:22:40.584Z,688.00
2024-04-15T11:23:41.832Z,692.00
2024-04-15T11:24:40.291Z,695.00
2024-04-15T11:25:40.290Z,697.00
2024-04-15T11:26:40.340Z,692.00
2024-04-15T11:27:40.346Z,690.00
2024-04-15T11:28:40.426Z,687.00
2024-04-15T11:29:51.670Z,683.00
2024-04-15T11:30:41.357Z,683.00
2024-04-15T11:31:40.383Z,679.00
2024-04-15T11:32:40.448Z,677.00
2024-04-15T11:33:40.445Z,672.00
2024-04-15T11:34:40.854Z,667.00
2024-04-15T11:35:40.400Z,664.00
2024-04-15T11:36:40.411Z,662.00
2024-04-15T11:37:40.429Z,657.00
2024-04-15T11:38:40.402Z,654.00
2024-04-15T11:39:40.484Z,648.00
2024-04-15T11:40:40.710Z,639.00
2024-04-15T11:41:40.647Z,637.00
2024-04-15T11:42:40.682Z,637.00
2024-04-15T11:43:40.662Z,634.00
2024-04-15T11:44:40.759Z,628.00
2024-04-15T11:45:40.807Z,625.00
2024-04-15T11:46:40.952Z,620.00
2024-04-15T11:47:40.967Z,617.00
2024-04-15T11:48:40.994Z,616.00
2024-04-15T11:49:41.046Z,617.00
2024-04-15T11:50:41.081Z,617.00
2024-04-15T11:51:41.188Z,618.00
2024-04-15T11:52:41.227Z,615.00
2024-04-15T11:53:41.278Z,610.00
2024-04-15T11:54:41.341Z,608.00
2024-04-15T11:55:41.400Z,604.00
2024-04-15T11:56:41.454Z,602.00
2024-04-15T11:57:41.536Z,600.00
2024-04-15T11:58:41.583Z,598.00
2024-04-15T11:59:41.661Z,598.00
2024-04-15T12:00:41.765Z,597.00
2024-04-15T12:01:41.838Z,598.00
2024-04-15T12:02:41.849Z,595.00
2024-04-15T12:03:41.910Z,595.00
2024-04-15T12:04:41.974Z,593.00
2024-04-15T12:05:41.993Z,593.00
2024-04-15T12:06:42.041Z,594.00
2024-04-15T12:07:42.082Z,595.00
2024-04-15T12:08:42.197Z,594.00
2024-04-15T12:09:42.178Z,594.00
2024-04-15T12:10:42.324Z,594.00
2024-04-15T12:11:42.340Z,594.00
2024-04-15T12:12:42.354Z,593.00
2024-04-15T12:13:42.395Z,596.00
2024-04-15T12:14:42.843Z,596.00
2024-04-15T12:15:42.447Z,597.00
2024-04-15T12:16:42.629Z,598.00
2024-04-15T12:17:42.807Z,598.00
2024-04-15T12:18:42.638Z,598.00
2024-04-15T12:19:42.646Z,597.00
2024-04-15T12:20:42.682Z,597.00
2024-04-15T12:21:42.724Z,597.00
2024-04-15T12:22:42.751Z,595.00
2024-04-15T12:23:42.782Z,596.00
2024-04-15T12:24:57.196Z,597.00
2024-04-15T12:25:43.809Z,596.00
2024-04-15T12:26:42.811Z,594.00
2024-04-15T12:27:43.265Z,595.00
2024-04-15T12:28:42.799Z,596.00